createdAt,value
2018-11-29T00:00:10.509Z,12.30
2018-11-29T00:02:37.924Z,14.03
2018-11-29T00:05:08.501Z,11.88
2018-11-29T00:07:35.909Z,11.00
2018-11-29T00:10:03.429Z,11.35
2018-11-29T00:12:30.825Z,12.33
2018-11-29T00:14:58.221Z,13.55
2018-11-29T00:17:25.623Z,11.03
2018-11-29T00:19:53.045Z,11.55
2018-11-29T00:22:20.453Z,11.22
2018-11-29T00:24:47.849Z,10.28
2018-11-29T00:27:15.261Z,11.03
2018-11-29T00:29:43.653Z,11.95
2018-11-29T00:32:14.613Z,13.62
2018-11-29T00:34:42.009Z,13.13
2018-11-29T00:37:09.394Z,12.88
2018-11-29T00:39:36.801Z,12.05
2018-11-29T00:42:04.286Z,10.40
2018-11-29T00:44:31.717Z,11.25
2018-11-29T00:46:59.097Z,11.10
2018-11-29T00:49:26.509Z,11.97
2018-11-29T00:51:57.529Z,10.82
2018-11-29T00:54:24.917Z,12.47
2018-11-29T00:56:52.340Z,12.58
2018-11-29T00:59:19.721Z,13.10
2018-11-29T01:01:55.986Z,10.82
2018-11-29T01:04:23.381Z,13.90
2018-11-29T01:06:50.774Z,13.80
2018-11-29T01:09:18.857Z,13.00
2018-11-29T01:11:45.584Z,11.80
2018-11-29T01:14:12.973Z,11.43
2018-11-29T01:16:41.393Z,11.63
2018-11-29T01:19:08.809Z,12.00
2018-11-29T01:21:36.224Z,12.40
2018-11-29T01:24:03.641Z,13.43
2018-11-29T01:26:31.041Z,13.25
2018-11-29T01:28:58.431Z,13.35
2018-11-29T01:31:25.824Z,10.58
2018-11-29T01:33:53.221Z,11.73
2018-11-29T01:36:20.630Z,12.20
2018-11-29T01:38:48.017Z,10.88
2018-11-29T01:41:15.432Z,10.93
2018-11-29T01:43:42.835Z,10.78
2018-11-29T01:46:10.221Z,10.65
2018-11-29T01:48:37.621Z,11.70
2018-11-29T01:51:05.337Z,12.47
2018-11-29T01:53:32.737Z,11.28
2018-11-29T01:56:00.138Z,14.38
2018-11-29T01:58:27.533Z,11.97
2018-11-29T02:00:54.933Z,12.70
2018-11-29T02:03:22.321Z,14.65
2018-11-29T02:05:49.720Z,12.90
2018-11-29T02:08:17.107Z,13.22
2018-11-29T02:10:49.364Z,11.78
2018-11-29T02:13:17.189Z,12.30
2018-11-29T02:15:44.636Z,10.93
2018-11-29T02:18:12.046Z,13.25
2018-11-29T02:20:39.437Z,10.25
2018-11-29T02:23:06.861Z,14.73
2018-11-29T02:25:37.569Z,13.48
2018-11-29T02:28:05.005Z,13.43
2018-11-29T02:30:32.475Z,10.70
2018-11-29T02:32:59.866Z,12.93
2018-11-29T02:35:27.261Z,12.78
2018-11-29T02:37:54.661Z,15.32
2018-11-29T02:40:22.056Z,13.58
2018-11-29T02:42:49.668Z,12.65
2018-11-29T02:45:19.114Z,13.08
2018-11-29T02:47:46.541Z,12.47
2018-11-29T02:50:13.945Z,15.58
2018-11-29T02:52:41.337Z,12.82
2018-11-29T02:55:10.688Z,13.38
2018-11-29T02:57:38.200Z,10.82
2018-11-29T03:00:09.574Z,12.40
2018-11-29T03:02:36.962Z,14.58
2018-11-29T03:05:04.441Z,12.13
2018-11-29T03:07:31.850Z,16.85
2018-11-29T03:09:59.233Z,12.93
2018-11-29T03:12:26.634Z,15.75
2018-11-29T03:14:54.057Z,13.90
2018-11-29T03:17:21.458Z,14.15
2018-11-29T03:19:48.850Z,12.25
2018-11-29T03:22:16.281Z,13.72
2018-11-29T03:24:43.657Z,13.72
2018-11-29T03:27:11.066Z,15.13
2018-11-29T03:29:38.485Z,12.30
2018-11-29T03:32:05.950Z,12.00
2018-11-29T03:34:33.357Z,17.07
2018-11-29T03:37:00.753Z,14.00
2018-11-29T03:39:28.157Z,16.35
2018-11-29T03:41:55.560Z,13.13
2018-11-29T03:44:22.961Z,12.75
2018-11-29T03:46:50.337Z,13.70
2018-11-29T03:49:17.745Z,14.00
2018-11-29T03:51:45.148Z,15.68
2018-11-29T03:54:12.545Z,12.37
2018-11-29T03:56:39.927Z,15.18
2018-11-29T03:59:07.334Z,14.75
2018-11-29T04:01:34.742Z,15.10
2018-11-29T04:04:02.132Z,14.83
2018-11-29T04:06:29.533Z,13.62
2018-11-29T04:08:56.936Z,14.55
2018-11-29T04:11:24.321Z,15.65
2018-11-29T04:13:54.776Z,14.78
2018-11-29T04:16:22.154Z,14.78
2018-11-29T04:18:49.565Z,15.98
2018-11-29T04:21:16.974Z,13.18
2018-11-29T04:23:47.938Z,13.90
2018-11-29T04:26:15.349Z,14.70
2018-11-29T04:28:42.773Z,13.65
2018-11-29T04:31:10.168Z,13.48
2018-11-29T04:33:37.569Z,15.55
2018-11-29T04:36:04.981Z,13.08
2018-11-29T04:38:32.394Z,12.82
2018-11-29T04:41:03.077Z,15.75
2018-11-29T04:43:30.481Z,16.52
2018-11-29T04:46:09.530Z,14.40
2018-11-29T04:48:36.921Z,15.30
2018-11-29T04:51:04.346Z,14.00
2018-11-29T04:53:31.729Z,13.32
2018-11-29T04:55:59.129Z,14.87
2018-11-29T04:58:26.530Z,14.95
2018-11-29T05:00:53.921Z,12.13
2018-11-29T05:03:21.341Z,11.85
2018-11-29T05:05:48.729Z,12.25
2018-11-29T05:08:16.129Z,14.35
2018-11-29T05:10:43.545Z,16.30
2018-11-29T05:13:10.929Z,13.22
2018-11-29T05:15:38.337Z,13.22
2018-11-29T05:18:05.739Z,14.35
2018-11-29T05:20:33.169Z,12.07
2018-11-29T05:23:00.571Z,14.50
2018-11-29T05:25:27.967Z,14.98
2018-11-29T05:27:55.361Z,12.85
2018-11-29T05:30:22.764Z,14.98
2018-11-29T05:32:50.197Z,13.95
2018-11-29T05:35:21.277Z,13.32
2018-11-29T05:37:48.661Z,13.20
2018-11-29T05:40:16.081Z,13.13
2018-11-29T05:42:43.461Z,15.90
2018-11-29T05:45:11.091Z,14.60
2018-11-29T05:47:38.549Z,12.25
2018-11-29T05:50:08.593Z,12.73
2018-11-29T05:52:35.985Z,16.45
2018-11-29T05:55:04.505Z,13.90
2018-11-29T05:57:31.905Z,13.62
2018-11-29T05:59:59.305Z,12.35
2018-11-29T06:02:26.701Z,14.43
2018-11-29T06:04:54.101Z,14.53
2018-11-29T06:07:21.500Z,14.73
2018-11-29T06:09:48.885Z,13.93
2018-11-29T06:12:16.315Z,13.50
2018-11-29T06:14:43.720Z,14.53
2018-11-29T06:17:11.111Z,13.83
2018-11-29T06:19:38.518Z,14.35
2018-11-29T06:22:05.944Z,12.95
2018-11-29T06:24:33.344Z,13.68
2018-11-29T06:27:00.740Z,15.03
2018-11-29T06:29:28.151Z,13.93
2018-11-29T06:31:55.537Z,13.10
2018-11-29T06:34:22.937Z,14.53
2018-11-29T06:36:54.090Z,15.43
2018-11-29T06:39:22.477Z,13.43
2018-11-29T06:41:49.913Z,12.65
2018-11-29T06:44:17.319Z,12.95
2018-11-29T06:46:44.713Z,14.58
2018-11-29T06:49:12.137Z,12.63
2018-11-29T06:51:39.537Z,11.20
2018-11-29T06:54:06.921Z,12.43
2018-11-29T06:56:37.953Z,13.48
2018-11-29T06:59:05.436Z,14.60
2018-11-29T07:01:32.865Z,13.78
2018-11-29T07:04:01.137Z,15.05
2018-11-29T07:06:29.541Z,14.03
2018-11-29T07:08:56.973Z,11.65
2018-11-29T07:11:24.389Z,12.73
2018-11-29T07:13:51.805Z,12.58
2018-11-29T07:16:19.205Z,14.53
2018-11-29T07:18:46.613Z,12.20
2018-11-29T07:21:26.867Z,12.78
2018-11-29T07:23:54.305Z,13.03
2018-11-29T07:26:21.685Z,11.08
2018-11-29T07:28:49.085Z,14.35
2018-11-29T07:31:17.534Z,11.97
2018-11-29T07:33:44.940Z,11.08
2018-11-29T07:36:12.365Z,11.28
2018-11-29T07:38:39.777Z,13.00
2018-11-29T07:41:07.181Z,12.40
2018-11-29T07:43:34.589Z,12.07
2018-11-29T07:46:02.009Z,12.07
2018-11-29T07:48:29.412Z,12.05
2018-11-29T07:50:56.817Z,11.88
2018-11-29T07:53:24.233Z,12.98
2018-11-29T07:55:51.625Z,13.93
2018-11-29T07:58:19.013Z,12.37
2018-11-29T08:00:46.444Z,12.43
2018-11-29T08:03:13.845Z,16.23
2018-11-29T08:05:41.258Z,14.45
2018-11-29T08:08:08.658Z,11.57
2018-11-29T08:10:36.073Z,14.23
2018-11-29T08:13:03.559Z,12.75
2018-11-29T08:15:30.977Z,13.83
2018-11-29T08:17:58.366Z,14.73
2018-11-29T08:20:25.765Z,14.10
2018-11-29T08:22:53.183Z,12.85
2018-11-29T08:25:20.613Z,11.43
2018-11-29T08:27:48.002Z,12.85
2018-11-29T08:30:15.749Z,11.97
2018-11-29T08:32:43.164Z,12.80
2018-11-29T08:35:11.531Z,15.30
2018-11-29T08:37:39.886Z,13.00
2018-11-29T08:40:13.430Z,14.30
2018-11-29T08:42:40.853Z,12.30
2018-11-29T08:45:09.433Z,13.08
2018-11-29T08:47:36.885Z,11.50
2018-11-29T08:50:06.097Z,16.00
2018-11-29T08:52:33.502Z,13.25
2018-11-29T08:55:00.894Z,13.48
2018-11-29T08:57:28.309Z,13.62
2018-11-29T08:59:55.725Z,12.10
2018-11-29T09:02:23.125Z,12.90
2018-11-29T09:04:50.537Z,12.00
2018-11-29T09:07:17.961Z,14.35
2018-11-29T09:09:45.337Z,14.40
2018-11-29T09:12:12.797Z,13.60
2018-11-29T09:14:43.825Z,17.23
2018-11-29T09:17:11.233Z,14.10
2018-11-29T09:19:38.640Z,14.55
2018-11-29T09:22:06.088Z,11.03
2018-11-29T09:24:33.469Z,11.33
2018-11-29T09:27:00.888Z,12.13
2018-11-29T09:29:28.289Z,14.05
2018-11-29T09:31:55.684Z,12.93
2018-11-29T09:34:23.097Z,13.53
2018-11-29T09:36:50.486Z,14.03
2018-11-29T09:39:17.881Z,11.05
2018-11-29T09:41:45.321Z,12.95
2018-11-29T09:44:12.746Z,11.88
2018-11-29T09:46:40.162Z,11.97
2018-11-29T09:49:07.578Z,13.45
2018-11-29T09:51:34.974Z,11.75
2018-11-29T09:54:02.430Z,12.20
2018-11-29T09:56:29.797Z,12.28
2018-11-29T09:58:57.209Z,15.70
2018-11-29T10:01:24.607Z,13.62
2018-11-29T10:03:52.046Z,11.88
2018-11-29T10:06:19.470Z,11.57
2018-11-29T10:08:46.875Z,12.18
2018-11-29T10:11:14.305Z,13.90
2018-11-29T10:13:46.140Z,15.20
2018-11-29T10:16:09.193Z,12.90
2018-11-29T10:18:36.549Z,11.60
2018-11-29T10:21:03.984Z,12.90
2018-11-29T10:23:31.400Z,12.18
2018-11-29T10:26:02.385Z,12.33
2018-11-29T10:28:29.834Z,14.35
2018-11-29T10:31:01.525Z,13.25
2018-11-29T10:33:28.917Z,12.47
2018-11-29T10:35:59.244Z,11.57
2018-11-29T10:38:23.736Z,13.80
2018-11-29T10:40:51.157Z,12.95
2018-11-29T10:43:22.107Z,12.33
2018-11-29T10:45:49.529Z,12.80
2018-11-29T10:48:22.009Z,11.95
2018-11-29T10:50:49.425Z,11.88
2018-11-29T10:53:16.862Z,13.32
2018-11-29T10:55:44.277Z,12.90
2018-11-29T10:58:11.657Z,11.57
2018-11-29T11:00:44.809Z,15.55
2018-11-29T11:03:17.806Z,12.00
2018-11-29T11:05:46.277Z,13.30
2018-11-29T11:08:13.697Z,15.00
2018-11-29T11:10:41.104Z,12.25
2018-11-29T11:13:08.549Z,12.03
2018-11-29T11:15:36.102Z,12.10
2018-11-29T11:18:03.804Z,14.68
2018-11-29T11:20:31.221Z,11.20
2018-11-29T11:22:58.626Z,11.95
2018-11-29T11:25:26.049Z,12.25
2018-11-29T11:27:53.476Z,13.60
2018-11-29T11:30:21.377Z,13.98
2018-11-29T11:32:49.876Z,14.75
2018-11-29T11:35:17.332Z,10.78
2018-11-29T11:37:44.797Z,14.65
2018-11-29T11:40:15.157Z,14.07
2018-11-29T11:42:43.385Z,12.60
2018-11-29T11:45:13.752Z,12.45
2018-11-29T11:47:44.835Z,11.28
2018-11-29T11:50:13.510Z,13.58
2018-11-29T11:52:41.039Z,14.73
2018-11-29T11:55:09.205Z,9.65
2018-11-29T11:57:36.671Z,12.37
2018-11-29T12:00:36.821Z,11.63
2018-11-29T12:03:07.403Z,13.62
2018-11-29T12:05:35.213Z,13.72
2018-11-29T12:08:02.653Z,12.03
2018-11-29T12:10:30.074Z,14.18
2018-11-29T12:12:58.501Z,14.47
2018-11-29T12:15:25.941Z,12.58
2018-11-29T12:17:53.662Z,11.10
2018-11-29T12:20:21.081Z,10.90
2018-11-29T12:22:48.529Z,12.98
2018-11-29T12:25:19.878Z,13.93
2018-11-29T12:27:47.293Z,13.00
2018-11-29T12:30:21.088Z,11.73
2018-11-29T12:32:48.505Z,13.48
2018-11-29T12:35:15.897Z,15.23
2018-11-29T12:37:43.320Z,12.25
2018-11-29T12:40:14.753Z,10.48
2018-11-29T12:42:42.189Z,12.93
2018-11-29T12:45:10.750Z,11.70
2018-11-29T12:47:38.313Z,13.83
2018-11-29T12:50:10.257Z,13.05
2018-11-29T12:52:37.669Z,16.35
2018-11-29T12:55:06.416Z,13.48
2018-11-29T12:57:33.806Z,13.05
2018-11-29T13:00:01.237Z,11.60
2018-11-29T13:02:28.641Z,13.93
2018-11-29T13:04:56.086Z,12.95
2018-11-29T13:07:23.514Z,12.63
2018-11-29T13:09:50.925Z,13.55
2018-11-29T13:12:18.357Z,12.43
2018-11-29T13:14:45.773Z,14.53
2018-11-29T13:17:14.348Z,11.10
2018-11-29T13:19:40.661Z,13.05
2018-11-29T13:22:08.070Z,11.93
2018-11-29T13:24:35.477Z,13.10
2018-11-29T13:27:02.917Z,14.73
2018-11-29T13:29:30.337Z,11.22
2018-11-29T13:31:57.741Z,12.07
2018-11-29T13:34:25.182Z,12.85
2018-11-29T13:36:52.612Z,13.22
2018-11-29T13:39:20.113Z,12.20
2018-11-29T13:41:47.526Z,11.65
2018-11-29T13:44:14.949Z,13.90
2018-11-29T13:46:42.344Z,11.83
2018-11-29T13:49:09.752Z,12.30
2018-11-29T13:51:37.162Z,12.70
2018-11-29T13:54:04.965Z,13.93
2018-11-29T13:56:32.379Z,13.18
2018-11-29T13:58:59.813Z,11.83
2018-11-29T14:01:27.217Z,11.55
2018-11-29T14:03:54.625Z,12.40
2018-11-29T14:06:22.062Z,8.85
2018-11-29T14:08:49.473Z,13.38
2018-11-29T14:11:16.870Z,12.18
2018-11-29T14:13:44.309Z,11.93
2018-11-29T14:16:11.705Z,13.32
2018-11-29T14:18:39.101Z,12.50
2018-11-29T14:21:06.526Z,11.60
2018-11-29T14:23:33.925Z,11.65
2018-11-29T14:26:01.343Z,13.18
2018-11-29T14:28:28.752Z,11.70
2018-11-29T14:30:56.150Z,11.70
2018-11-29T14:33:23.582Z,13.48
2018-11-29T14:35:50.977Z,11.68
2018-11-29T14:38:18.379Z,12.23
2018-11-29T14:40:45.839Z,10.60
2018-11-29T14:43:13.214Z,11.43
2018-11-29T14:45:40.655Z,12.73
2018-11-29T14:48:08.065Z,11.05
2018-11-29T14:50:38.698Z,11.25
2018-11-29T14:53:07.149Z,13.03
2018-11-29T14:55:35.017Z,12.60
2018-11-29T14:58:02.460Z,10.38
2018-11-29T15:00:29.881Z,13.65
2018-11-29T15:02:58.305Z,11.70
2018-11-29T15:05:30.400Z,12.80
2018-11-29T15:07:57.837Z,10.55
2018-11-29T15:10:25.645Z,10.88
2018-11-29T15:12:53.199Z,12.63
2018-11-29T15:15:20.653Z,13.22
2018-11-29T15:17:48.981Z,10.95
2018-11-29T15:20:25.721Z,11.40
2018-11-29T15:22:53.151Z,13.22
2018-11-29T15:25:20.609Z,11.68
2018-11-29T15:27:48.021Z,11.00
2018-11-29T15:30:17.841Z,10.20
2018-11-29T15:32:45.261Z,12.05
2018-11-29T15:35:12.669Z,10.55
2018-11-29T15:37:40.095Z,10.63
2018-11-29T15:40:09.840Z,10.28
2018-11-29T15:42:37.240Z,12.00
2018-11-29T15:45:08.544Z,11.88
2018-11-29T15:47:35.949Z,9.83
2018-11-29T15:50:04.101Z,11.85
2018-11-29T15:52:31.489Z,9.95
2018-11-29T15:54:58.921Z,9.43
2018-11-29T15:57:26.313Z,10.85
2018-11-29T15:59:53.712Z,10.00
2018-11-29T16:02:21.118Z,10.43
2018-11-29T16:04:48.509Z,10.90
2018-11-29T16:07:15.919Z,10.13
2018-11-29T16:09:43.321Z,9.25
2018-11-29T16:12:10.729Z,11.57
2018-11-29T16:14:43.484Z,10.20
2018-11-29T16:17:09.149Z,11.75
2018-11-29T16:19:39.956Z,10.85
2018-11-29T16:22:10.461Z,11.05
2018-11-29T16:24:37.897Z,11.57
2018-11-29T16:27:05.561Z,11.50
2018-11-29T16:29:32.989Z,10.95
2018-11-29T16:32:00.381Z,8.55
2018-11-29T16:34:27.800Z,11.08
2018-11-29T16:36:55.220Z,10.40
2018-11-29T16:39:22.629Z,9.85
2018-11-29T16:41:50.057Z,15.83
2018-11-29T16:44:17.489Z,12.70
2018-11-29T16:46:44.895Z,9.90
2018-11-29T16:49:12.305Z,13.18
2018-11-29T16:51:39.712Z,10.82
2018-11-29T16:54:07.125Z,9.90
2018-11-29T16:56:34.534Z,14.30
2018-11-29T16:59:01.945Z,12.50
2018-11-29T17:01:29.348Z,10.38
2018-11-29T17:03:56.736Z,12.65
2018-11-29T17:06:24.159Z,10.95
2018-11-29T17:08:51.577Z,8.50
2018-11-29T17:11:19.025Z,10.85
2018-11-29T17:13:52.449Z,9.80
2018-11-29T17:16:19.869Z,9.13
2018-11-29T17:18:47.290Z,9.90
2018-11-29T17:21:16.762Z,11.40
2018-11-29T17:23:44.157Z,11.68
2018-11-29T17:26:11.569Z,9.80
2018-11-29T17:28:38.981Z,10.50
2018-11-29T17:31:06.413Z,11.10
2018-11-29T17:33:33.810Z,11.15
2018-11-29T17:36:01.209Z,9.78
2018-11-29T17:38:28.626Z,10.13
2018-11-29T17:40:59.188Z,10.23
2018-11-29T17:43:26.617Z,10.25
2018-11-29T17:45:57.156Z,9.43
2018-11-29T17:48:24.564Z,10.00
2018-11-29T17:50:51.975Z,10.23
2018-11-29T17:53:19.373Z,11.80
2018-11-29T17:55:46.837Z,9.88
2018-11-29T17:58:14.934Z,9.98
2018-11-29T18:00:44.365Z,11.88
2018-11-29T18:03:12.998Z,9.48
2018-11-29T18:05:40.686Z,9.95
2018-11-29T18:08:08.513Z,9.95
2018-11-29T18:10:38.186Z,10.93
2018-11-29T18:13:15.433Z,12.73
2018-11-29T18:15:43.163Z,10.82
2018-11-29T18:18:11.122Z,10.45
2018-11-29T18:20:38.883Z,10.08
2018-11-29T18:23:07.520Z,10.18
2018-11-29T18:25:35.242Z,11.05
2018-11-29T18:28:02.996Z,10.35
2018-11-29T18:30:30.748Z,10.30
2018-11-29T18:32:58.479Z,9.88
2018-11-29T18:35:26.214Z,9.43
2018-11-29T18:37:53.891Z,10.23
2018-11-29T18:40:21.794Z,8.65
2018-11-29T18:42:53.970Z,10.30
2018-11-29T18:45:21.756Z,10.65
2018-11-29T18:47:50.243Z,11.38
2018-11-29T18:50:20.681Z,10.70
2018-11-29T18:52:48.214Z,11.18
2018-11-29T18:55:23.238Z,10.78
2018-11-29T18:57:51.461Z,9.78
2018-11-29T19:00:28.447Z,9.98
2018-11-29T19:03:00.080Z,7.95
2018-11-29T19:05:28.001Z,9.95
2018-11-29T19:07:55.813Z,10.10
2018-11-29T19:10:23.681Z,9.70
2018-11-29T19:12:59.833Z,9.15
2018-11-29T19:15:31.452Z,8.15
2018-11-29T19:17:58.908Z,12.20
2018-11-29T19:20:28.535Z,10.78
2018-11-29T19:23:00.595Z,10.05
2018-11-29T19:25:29.493Z,12.18
2018-11-29T19:27:57.826Z,8.93
2018-11-29T19:30:27.617Z,9.93
2018-11-29T19:33:09.113Z,9.40
2018-11-29T19:35:36.905Z,9.00
2018-11-29T19:38:06.613Z,10.63
2018-11-29T19:40:34.536Z,9.03
2018-11-29T19:43:02.168Z,9.93
2018-11-29T19:45:29.717Z,9.93
2018-11-29T19:47:57.398Z,10.72
2018-11-29T19:50:24.842Z,8.73
2018-11-29T19:52:54.929Z,10.00
2018-11-29T19:55:23.854Z,8.73
2018-11-29T19:57:51.321Z,9.30
2018-11-29T20:00:19.497Z,9.03
2018-11-29T20:02:47.574Z,9.30
2018-11-29T20:05:15.024Z,8.80
2018-11-29T20:07:43.610Z,10.65
2018-11-29T20:10:15.586Z,8.08
2018-11-29T20:12:45.199Z,9.45
2018-11-29T20:15:15.980Z,9.25
2018-11-29T20:17:44.404Z,9.10
2018-11-29T20:20:13.067Z,11.60
2018-11-29T20:22:42.740Z,10.50
2018-11-29T20:25:13.380Z,9.00
2018-11-29T20:27:43.042Z,7.70
2018-11-29T20:30:19.154Z,10.23
2018-11-29T20:32:50.052Z,9.43
2018-11-29T20:35:23.116Z,9.88
2018-11-29T20:37:53.679Z,9.40
2018-11-29T20:40:26.532Z,6.70
2018-11-29T20:43:00.481Z,10.53
2018-11-29T20:45:32.644Z,9.03
2018-11-29T20:48:03.411Z,9.88
2018-11-29T20:50:33.248Z,7.30
2018-11-29T20:53:02.993Z,8.20
2018-11-29T20:55:33.319Z,8.40
2018-11-29T20:58:02.741Z,8.43
2018-11-29T21:00:30.985Z,8.53
2018-11-29T21:02:59.092Z,10.05
2018-11-29T21:05:31.121Z,7.53
2018-11-29T21:08:00.845Z,7.87
2018-11-29T21:10:28.446Z,7.40
2018-11-29T21:13:01.500Z,9.13
2018-11-29T21:15:30.189Z,7.62
2018-11-29T21:17:57.957Z,9.70
2018-11-29T21:20:25.428Z,7.62
2018-11-29T21:22:53.106Z,9.25
2018-11-29T21:25:21.905Z,10.13
2018-11-29T21:27:49.357Z,7.92
2018-11-29T21:30:16.849Z,8.65
2018-11-29T21:32:44.714Z,9.63
2018-11-29T21:35:13.389Z,9.75
2018-11-29T21:37:40.950Z,9.43
2018-11-29T21:40:11.419Z,8.15
2018-11-29T21:42:39.283Z,7.65
2018-11-29T21:45:06.485Z,8.70
2018-11-29T21:47:33.937Z,12.58
2018-11-29T21:50:01.401Z,8.90
2018-11-29T21:52:28.828Z,7.90
2018-11-29T21:54:56.343Z,7.75
2018-11-29T21:57:24.104Z,8.20
2018-11-29T21:59:51.835Z,10.05
2018-11-29T22:02:19.586Z,8.23
2018-11-29T22:04:47.334Z,7.90
2018-11-29T22:07:15.074Z,5.70
2018-11-29T22:09:42.794Z,8.25
2018-11-29T22:12:10.526Z,9.40
2018-11-29T22:14:38.226Z,8.95
2018-11-29T22:17:09.611Z,10.58
2018-11-29T22:19:37.416Z,9.90
2018-11-29T22:22:05.847Z,8.88
2018-11-29T22:24:33.539Z,7.15
2018-11-29T22:27:01.274Z,7.83
2018-11-29T22:29:29.013Z,7.03
2018-11-29T22:31:56.663Z,7.53
2018-11-29T22:34:24.426Z,6.08
2018-11-29T22:36:52.158Z,7.50
2018-11-29T22:39:19.850Z,6.60
2018-11-29T22:41:47.636Z,7.95
2018-11-29T22:44:15.374Z,10.50
2018-11-29T22:46:43.114Z,9.28
2018-11-29T22:49:10.902Z,7.25
2018-11-29T22:51:38.642Z,7.20
2018-11-29T22:54:06.377Z,7.55
2018-11-29T22:56:34.174Z,7.30
2018-11-29T22:59:01.827Z,7.78
2018-11-29T23:01:29.606Z,8.90
2018-11-29T23:03:57.350Z,7.92
2018-11-29T23:06:25.094Z,7.22
2018-11-29T23:08:52.798Z,10.58
2018-11-29T23:11:20.558Z,8.25
2018-11-29T23:13:48.254Z,8.43
2018-11-29T23:16:15.910Z,7.65
2018-11-29T23:18:43.655Z,10.48
2018-11-29T23:21:11.370Z,8.20
2018-11-29T23:23:39.139Z,7.60
2018-11-29T23:26:06.922Z,7.78
2018-11-29T23:28:34.598Z,7.45
2018-11-29T23:31:02.298Z,7.37
2018-11-29T23:33:30.077Z,9.88
2018-11-29T23:35:57.797Z,8.30
2018-11-29T23:38:25.502Z,8.85
2018-11-29T23:40:53.286Z,8.63
2018-11-29T23:43:21.058Z,9.70
2018-11-29T23:45:48.788Z,8.13
2018-11-29T23:48:16.499Z,8.13
2018-11-29T23:50:44.404Z,6.50
2018-11-29T23:53:12.933Z,7.42
2018-11-29T23:55:41.442Z,6.40
2018-11-29T23:58:12.137Z,8.38
